createdAt,value
2023-04-13T00:01:50.434Z,95571.03
2023-04-13T00:04:19.079Z,95576.25
2023-04-13T00:06:50.679Z,95578.59
2023-04-13T00:09:19.716Z,95565.00
2023-04-13T00:11:49.297Z,95558.63
2023-04-13T00:14:19.002Z,95565.00
2023-04-13T00:16:48.276Z,95567.00
2023-04-13T00:19:18.206Z,95574.19
2023-04-13T00:21:46.575Z,95576.00
2023-04-13T00:24:16.568Z,95584.41
2023-04-13T00:26:45.800Z,95585.19
2023-04-13T00:29:13.939Z,95580.81
2023-04-13T00:31:42.349Z,95582.81
2023-04-13T00:34:10.876Z,95585.41
2023-04-13T00:36:39.360Z,95587.19
2023-04-13T00:39:07.649Z,95583.00
2023-04-13T00:41:37.511Z,95590.78
2023-04-13T00:44:05.997Z,95590.97
2023-04-13T00:46:35.056Z,95588.59
2023-04-13T00:49:03.540Z,95585.78
2023-04-13T00:51:33.185Z,95582.56
2023-04-13T00:54:01.771Z,95593.19
2023-04-13T00:56:30.346Z,95591.56
2023-04-13T00:58:59.954Z,95597.38
2023-04-13T01:01:30.556Z,95592.59
2023-04-13T01:03:59.626Z,95609.16
2023-04-13T01:06:34.114Z,95617.56
2023-04-13T01:09:08.665Z,95623.16
2023-04-13T01:11:41.735Z,95626.56
2023-04-13T01:14:18.249Z,95640.34
2023-04-13T01:16:54.086Z,95649.16
2023-04-13T01:19:34.198Z,95639.38
2023-04-13T01:22:03.992Z,95644.16
2023-04-13T01:24:42.305Z,95647.91
2023-04-13T01:27:16.670Z,95638.28
2023-04-13T01:29:48.493Z,95617.28
2023-04-13T01:32:17.559Z,95611.25
2023-04-13T01:34:45.929Z,95605.69
2023-04-13T01:37:14.603Z,95593.47
2023-04-13T01:39:42.645Z,95595.66
2023-04-13T01:42:10.787Z,95591.91
2023-04-13T01:44:39.105Z,95588.69
2023-04-13T01:47:17.059Z,95592.03
2023-04-13T01:49:50.018Z,95591.88
2023-04-13T01:52:19.436Z,95595.25
2023-04-13T01:54:51.478Z,95592.84
2023-04-13T01:57:20.443Z,95597.66
2023-04-13T01:59:48.786Z,95595.66
2023-04-13T02:02:19.397Z,95592.06
2023-04-13T02:04:47.771Z,95577.09
2023-04-13T02:07:16.505Z,95585.25
2023-04-13T02:09:45.510Z,95584.88
2023-04-13T02:12:13.974Z,95583.25
2023-04-13T02:14:42.859Z,95592.47
2023-04-13T02:17:11.008Z,95586.84
2023-04-13T02:19:40.983Z,95592.66
2023-04-13T02:22:09.189Z,95595.88
2023-04-13T02:24:37.585Z,95602.25
2023-04-13T02:27:06.328Z,95598.41
2023-04-13T02:29:35.127Z,95600.00
2023-04-13T02:32:03.500Z,95601.00
2023-04-13T02:34:32.488Z,95600.56
2023-04-13T02:37:02.776Z,95598.78
2023-04-13T02:39:31.227Z,95594.19
2023-04-13T02:41:59.345Z,95591.59
2023-04-13T02:44:27.674Z,95593.38
2023-04-13T02:46:56.252Z,95603.19
2023-04-13T02:49:24.735Z,95609.38
2023-04-13T02:51:52.793Z,95603.00
2023-04-13T02:54:22.569Z,95598.78
2023-04-13T02:56:50.981Z,95599.34
2023-04-13T02:59:18.993Z,95602.31
2023-04-13T03:01:48.078Z,95609.09
2023-04-13T03:04:16.528Z,95614.50
2023-04-13T03:06:46.358Z,95621.88
2023-04-13T03:09:14.414Z,95623.81
2023-04-13T03:11:43.443Z,95617.72
2023-04-13T03:14:13.081Z,95609.03
2023-04-13T03:16:40.717Z,95611.69
2023-04-13T03:19:08.338Z,95621.34
2023-04-13T03:21:36.194Z,95608.13
2023-04-13T03:24:03.900Z,95611.75
2023-04-13T03:26:31.716Z,95616.94
2023-04-13T03:29:01.685Z,95626.13
2023-04-13T03:31:30.328Z,95617.78
2023-04-13T03:33:59.088Z,95625.00
2023-04-13T03:36:28.815Z,95626.59
2023-04-13T03:38:58.398Z,95637.41
2023-04-13T03:41:26.500Z,95636.69
2023-04-13T03:43:54.779Z,95641.47
2023-04-13T03:46:23.803Z,95638.13
2023-04-13T03:48:51.349Z,95637.16
2023-04-13T03:51:18.855Z,95633.56
2023-04-13T03:53:47.187Z,95635.38
2023-04-13T03:56:14.743Z,95638.75
2023-04-13T03:58:42.851Z,95629.75
2023-04-13T04:01:10.759Z,95632.72
2023-04-13T04:03:39.780Z,95638.88
2023-04-13T04:06:08.398Z,95637.13
2023-04-13T04:08:35.906Z,95635.50
2023-04-13T04:11:04.379Z,95633.06
2023-04-13T04:13:32.095Z,95628.72
2023-04-13T04:15:59.763Z,95625.50
2023-04-13T04:18:27.585Z,95617.41
2023-04-13T04:20:56.420Z,95619.25
2023-04-13T04:23:28.373Z,95610.78
2023-04-13T04:25:59.253Z,95611.09
2023-04-13T04:28:30.206Z,95618.88
2023-04-13T04:31:01.206Z,95634.81
2023-04-13T04:33:28.774Z,95636.03
2023-04-13T04:35:57.606Z,95637.84
2023-04-13T04:38:25.345Z,95634.63
2023-04-13T04:40:57.436Z,95635.63
2023-04-13T04:43:27.086Z,95638.84
2023-04-13T04:45:57.718Z,95638.22
2023-04-13T04:48:27.197Z,95644.03
2023-04-13T04:50:55.976Z,95647.78
2023-04-13T04:53:25.187Z,95651.00
2023-04-13T04:55:52.717Z,95654.19
2023-04-13T04:58:20.712Z,95665.94
2023-04-13T05:00:49.749Z,95668.91
2023-04-13T05:03:17.467Z,95657.78
2023-04-13T05:05:45.121Z,95661.81
2023-04-13T05:08:13.177Z,95661.00
2023-04-13T05:10:46.132Z,95657.78
2023-04-13T05:13:13.898Z,95661.81
2023-04-13T05:15:41.521Z,95664.41
2023-04-13T05:18:09.118Z,95663.84
2023-04-13T05:20:37.748Z,95665.09
2023-04-13T05:23:05.344Z,95657.94
2023-04-13T05:25:32.888Z,95653.97
2023-04-13T05:28:01.720Z,95672.38
2023-04-13T05:30:29.455Z,95667.81
2023-04-13T05:32:57.112Z,95666.28
2023-04-13T05:35:27.946Z,95664.09
2023-04-13T05:37:57.262Z,95665.53
2023-04-13T05:40:24.890Z,95671.78
2023-04-13T05:42:52.458Z,95673.63
2023-04-13T05:45:21.528Z,95664.66
2023-04-13T05:47:49.165Z,95676.72
2023-04-13T05:50:16.753Z,95673.34
2023-04-13T05:52:44.315Z,95680.41
2023-04-13T05:55:12.543Z,95685.59
2023-04-13T05:57:40.818Z,95686.34
2023-04-13T06:00:10.417Z,95684.13
2023-04-13T06:02:40.368Z,95679.50
2023-04-13T06:05:08.547Z,95687.84
2023-04-13T06:07:37.011Z,95688.47
2023-04-13T06:10:04.986Z,95699.09
2023-04-13T06:12:33.494Z,95685.53
2023-04-13T06:15:00.981Z,95693.78
2023-04-13T06:17:28.615Z,95697.59
2023-04-13T06:19:57.516Z,95698.91
2023-04-13T06:22:25.106Z,95693.38
2023-04-13T06:24:52.803Z,95696.25
2023-04-13T06:27:20.397Z,95697.47
2023-04-13T06:29:47.914Z,95689.72
2023-04-13T06:32:15.664Z,95695.59
2023-04-13T06:34:45.690Z,95699.44
2023-04-13T06:37:14.592Z,95698.84
2023-04-13T06:39:42.108Z,95692.09
2023-04-13T06:42:09.675Z,95700.50
2023-04-13T06:44:37.233Z,95694.13
2023-04-13T06:47:05.832Z,95690.91
2023-04-13T06:49:33.771Z,95699.72
2023-04-13T06:52:01.345Z,95703.34
2023-04-13T06:54:30.419Z,95697.78
2023-04-13T06:56:58.196Z,95703.75
2023-04-13T06:59:25.903Z,95708.75
2023-04-13T07:01:53.535Z,95700.38
2023-04-13T07:04:21.376Z,95705.94
2023-04-13T07:06:48.949Z,95703.72
2023-04-13T07:09:16.917Z,95700.31
2023-04-13T07:11:46.250Z,95702.50
2023-04-13T07:14:13.748Z,95708.31
2023-04-13T07:16:41.248Z,95701.72
2023-04-13T07:19:08.758Z,95701.09
2023-04-13T07:21:36.332Z,95706.91
2023-04-13T07:24:03.858Z,95710.69
2023-04-13T07:26:31.712Z,95707.75
2023-04-13T07:29:00.968Z,95701.31
2023-04-13T07:31:28.736Z,95713.50
2023-04-13T07:33:56.530Z,95706.34
2023-04-13T07:36:24.227Z,95713.31
2023-04-13T07:38:51.799Z,95720.56
2023-04-13T07:41:22.442Z,95714.97
2023-04-13T07:43:49.972Z,95717.16
2023-04-13T07:46:20.366Z,95715.41
2023-04-13T07:48:48.055Z,95722.00
2023-04-13T07:51:18.874Z,95722.97
2023-04-13T07:53:46.989Z,95718.78
2023-04-13T07:56:14.743Z,95719.38
2023-04-13T07:58:42.612Z,95721.34
2023-04-13T08:01:10.519Z,95723.56
2023-04-13T08:03:39.599Z,95730.38
2023-04-13T08:06:07.699Z,95726.41
2023-04-13T08:08:35.654Z,95728.44
2023-04-13T08:11:03.173Z,95731.84
2023-04-13T08:13:31.455Z,95723.94
2023-04-13T08:16:00.328Z,95730.19
2023-04-13T08:18:28.237Z,95728.44
2023-04-13T08:20:57.125Z,95731.25
2023-04-13T08:23:25.404Z,95731.66
2023-04-13T08:25:52.974Z,95736.03
2023-04-13T08:28:20.536Z,95739.66
2023-04-13T08:30:48.254Z,95738.66
2023-04-13T08:33:15.820Z,95736.03
2023-04-13T08:35:43.387Z,95742.06
2023-04-13T08:38:12.566Z,95747.47
2023-04-13T08:40:41.748Z,95758.47
2023-04-13T08:43:09.321Z,95745.06
2023-04-13T08:45:37.188Z,95750.09
2023-04-13T08:48:05.213Z,95750.34
2023-04-13T08:50:32.866Z,95751.38
2023-04-13T08:53:00.718Z,95745.41
2023-04-13T08:55:29.758Z,95751.06
2023-04-13T08:57:59.300Z,95746.03
2023-04-13T09:00:27.139Z,95741.84
2023-04-13T09:03:04.941Z,95741.25
2023-04-13T09:05:40.149Z,95747.78
2023-04-13T09:08:08.830Z,95744.88
2023-04-13T09:10:37.733Z,95745.03
2023-04-13T09:13:05.620Z,95741.97
2023-04-13T09:15:33.624Z,95743.00
2023-04-13T09:18:09.428Z,95749.81
2023-04-13T09:20:37.890Z,95743.56
2023-04-13T09:23:13.567Z,95750.78
2023-04-13T09:25:43.073Z,95746.19
2023-04-13T09:28:17.238Z,95746.25
2023-04-13T09:30:44.855Z,95743.53
2023-04-13T09:33:13.644Z,95740.00
2023-04-13T09:35:41.553Z,95746.50
2023-04-13T09:38:11.674Z,95742.13
2023-04-13T09:40:50.507Z,95750.59
2023-04-13T09:43:18.010Z,95743.75
2023-04-13T09:45:45.633Z,95746.34
2023-04-13T10:00:21.981Z,95717.69
2023-04-13T13:49:15.563Z,95714.31
2023-04-13T14:12:39.572Z,95713.09
2023-04-13T14:15:08.074Z,95709.50
2023-04-13T14:17:36.216Z,95707.91
2023-04-13T14:20:06.383Z,95703.31
2023-04-13T14:22:33.868Z,95699.53
2023-04-13T14:25:01.614Z,95700.50
2023-04-13T14:27:29.102Z,95706.28
2023-04-13T14:29:57.962Z,95709.94
2023-04-13T14:32:25.540Z,95700.66
2023-04-13T14:34:53.346Z,95711.91
2023-04-13T14:37:21.403Z,95704.84
2023-04-13T14:39:49.347Z,95705.50
2023-04-13T14:42:17.315Z,95707.13
2023-04-13T14:44:44.825Z,95707.91
2023-04-13T14:47:15.767Z,95704.72
2023-04-13T14:49:43.558Z,95703.13
2023-04-13T14:52:11.390Z,95697.88
2023-04-13T14:54:39.061Z,95704.13
2023-04-13T14:57:06.575Z,95709.19
2023-04-13T14:59:34.105Z,95704.00
2023-04-13T15:02:01.807Z,95706.25
2023-04-13T15:04:30.936Z,95709.28
2023-04-13T15:07:00.168Z,95713.88
2023-04-13T15:09:27.862Z,95712.25
2023-04-13T15:11:55.462Z,95713.63
2023-04-13T15:14:23.263Z,95723.50
2023-04-13T15:16:50.919Z,95719.13
2023-04-13T15:19:18.468Z,95724.53
2023-04-13T15:21:47.320Z,95731.03
2023-04-13T15:24:14.803Z,95723.03
2023-04-13T15:26:43.070Z,95727.53
2023-04-13T15:29:10.635Z,95718.59
2023-04-13T15:31:39.595Z,95722.47
2023-04-13T15:34:08.648Z,95719.69
2023-04-13T15:36:36.507Z,95711.09
2023-04-13T15:39:05.621Z,95710.13
2023-04-13T15:41:33.186Z,95712.38
2023-04-13T15:44:01.863Z,95711.16
2023-04-13T15:46:29.796Z,95719.78
2023-04-13T15:48:57.660Z,95722.56
2023-04-13T15:51:27.269Z,95716.38
2023-04-13T15:53:54.823Z,95719.38
2023-04-13T15:56:23.702Z,95724.00
2023-04-13T15:58:51.217Z,95737.03
2023-04-13T16:01:18.719Z,95744.28
2023-04-13T16:03:46.613Z,95747.69
2023-04-13T16:06:14.327Z,95746.50
2023-04-13T16:08:41.833Z,95747.47
2023-04-13T16:11:09.353Z,95755.09
2023-04-13T16:13:48.186Z,95769.50
2023-04-13T16:16:18.136Z,95776.72
2023-04-13T16:18:45.676Z,95779.91
2023-04-13T16:21:19.031Z,95781.31
2023-04-13T16:23:46.851Z,95785.91
2023-04-13T16:26:14.355Z,95784.31
2023-04-13T16:28:43.206Z,95784.72
2023-04-13T16:31:11.225Z,95781.13
2023-04-13T16:33:38.876Z,95771.50
2023-04-13T16:36:07.123Z,95793.13
2023-04-13T16:38:34.671Z,95794.34
2023-04-13T16:41:02.183Z,95805.16
2023-04-13T16:43:29.851Z,95805.97
2023-04-13T16:45:58.736Z,95803.97
2023-04-13T16:48:27.795Z,95804.56
2023-04-13T16:50:58.839Z,95804.94
2023-04-13T16:53:27.548Z,95804.75
2023-04-13T16:55:56.869Z,95816.38
2023-04-13T16:58:24.398Z,95814.97
2023-04-13T17:00:53.126Z,95824.63
2023-04-13T17:03:22.253Z,95818.56
2023-04-13T17:05:49.949Z,95819.59
2023-04-13T17:08:17.474Z,95821.19
2023-04-13T17:10:45.921Z,95814.19
2023-04-13T17:13:13.953Z,95819.78
2023-04-13T17:15:41.511Z,95809.16
2023-04-13T17:18:09.075Z,95806.53
2023-04-13T17:20:38.642Z,95808.09
2023-04-13T17:23:06.237Z,95813.91
2023-04-13T17:25:34.791Z,95813.69
2023-04-13T17:28:02.282Z,95815.84
2023-04-13T17:30:29.925Z,95823.03
2023-04-13T17:32:57.569Z,95830.81
2023-04-13T17:35:25.119Z,95831.41
2023-04-13T17:37:53.996Z,95834.22
2023-04-13T17:40:21.643Z,95837.88
2023-04-13T17:42:49.134Z,95836.88
2023-04-13T17:45:18.373Z,95836.66
2023-04-13T17:47:47.203Z,95832.44
2023-04-13T17:50:14.913Z,95829.56
2023-04-13T17:52:42.502Z,95834.13
2023-04-13T17:55:11.752Z,95825.69
2023-04-13T17:57:39.337Z,95839.09
2023-04-13T18:00:08.254Z,95827.84
2023-04-13T18:02:36.054Z,95829.19
2023-04-13T18:05:05.093Z,95825.50
2023-04-13T18:07:32.687Z,95833.00
2023-04-13T18:10:00.306Z,95828.91
2023-04-13T18:12:29.225Z,95832.88
2023-04-13T18:14:56.816Z,95836.06
2023-04-13T18:17:24.398Z,95841.25
2023-04-13T18:19:52.968Z,95844.06
2023-04-13T18:22:20.522Z,95841.25
2023-04-13T18:24:48.089Z,95845.66
2023-04-13T18:27:16.224Z,95850.50
2023-04-13T18:29:45.096Z,95851.84
2023-04-13T18:32:12.648Z,95852.84
2023-04-13T18:34:42.205Z,95859.44
2023-04-13T18:37:09.726Z,95859.88
2023-04-13T18:39:38.157Z,95860.13
2023-04-13T18:42:07.544Z,95865.16
2023-04-13T18:44:35.244Z,95862.97
2023-04-13T18:47:04.206Z,95868.53
2023-04-13T18:49:31.755Z,95867.75
2023-04-13T18:51:59.382Z,95867.91
2023-04-13T18:54:26.928Z,95859.28
2023-04-13T18:56:54.518Z,95866.97
2023-04-13T18:59:22.052Z,95863.81
2023-04-13T19:01:49.673Z,95864.69
2023-04-13T19:04:18.719Z,95869.28
2023-04-13T19:06:46.306Z,95868.66
2023-04-13T19:09:13.979Z,95870.25
2023-04-13T19:11:49.103Z,95883.50
2023-04-13T19:14:16.624Z,95876.97
2023-04-13T19:16:45.612Z,95875.94
2023-04-13T19:19:15.599Z,95869.97
2023-04-13T19:21:44.557Z,95864.69
2023-04-13T19:24:13.182Z,95860.84
2023-04-13T19:26:40.906Z,95861.47
2023-04-13T19:29:08.902Z,95859.00
2023-04-13T19:31:37.974Z,95858.84
2023-04-13T19:34:05.927Z,95857.72
2023-04-13T19:36:33.512Z,95860.78
2023-04-13T19:39:05.247Z,95851.88
2023-04-13T19:41:33.576Z,95857.78
2023-04-13T19:44:02.020Z,95863.22
2023-04-13T19:46:32.608Z,95855.09
2023-04-13T19:49:02.272Z,95862.00
2023-04-13T19:51:30.082Z,95865.31
2023-04-13T19:54:00.069Z,95861.63
2023-04-13T19:56:30.671Z,95858.75
2023-04-13T19:58:59.042Z,95862.84
2023-04-13T20:01:26.684Z,95860.00
2023-04-13T20:03:54.289Z,95862.50
2023-04-13T20:06:21.882Z,95863.03
2023-04-13T20:08:49.401Z,95859.19
2023-04-13T20:11:16.983Z,95856.94
2023-04-13T20:13:46.553Z,95859.06
2023-04-13T20:16:14.125Z,95862.84
2023-04-13T20:18:42.093Z,95869.97
2023-04-13T20:21:10.718Z,95877.06
2023-04-13T20:23:38.247Z,95881.50
2023-04-13T20:26:05.889Z,95878.69
2023-04-13T20:28:33.979Z,95887.38
2023-04-13T20:31:02.961Z,95880.22
2023-04-13T20:33:30.533Z,95881.22
2023-04-13T20:35:58.032Z,95888.53
2023-04-13T20:38:29.958Z,95897.63
2023-04-13T20:40:59.187Z,95899.59
2023-04-13T20:43:26.844Z,95887.63
2023-04-13T20:45:57.305Z,95895.75
2023-04-13T20:51:01.670Z,95893.41
2023-04-13T20:53:29.746Z,95886.16
2023-04-13T20:55:58.307Z,95879.53
2023-04-13T20:58:26.046Z,95879.34
2023-04-13T21:00:53.613Z,95874.16
2023-04-13T21:03:21.959Z,95869.34
2023-04-13T21:05:52.661Z,95858.97
2023-04-13T21:08:20.967Z,95851.47
2023-04-13T21:10:48.843Z,95840.75
2023-04-13T21:13:16.706Z,95834.66
2023-04-13T21:15:44.471Z,95839.22
2023-04-13T21:18:12.279Z,95846.19
2023-04-13T21:20:40.608Z,95850.09
2023-04-13T21:23:09.443Z,95849.31
2023-04-13T21:25:37.544Z,95845.63
2023-04-13T21:28:05.370Z,95863.66
2023-04-13T21:30:32.945Z,95870.19
2023-04-13T21:33:00.783Z,95870.69
2023-04-13T21:35:29.141Z,95874.78
2023-04-13T21:37:56.673Z,95879.03
2023-04-13T21:40:25.613Z,95880.53
2023-04-13T21:42:53.098Z,95880.06
2023-04-13T21:45:21.011Z,95874.25
2023-04-13T21:47:48.523Z,95865.69
2023-04-13T21:50:16.103Z,95866.66
2023-04-13T21:52:43.700Z,95875.22
2023-04-13T21:55:17.583Z,95861.66
2023-04-13T21:57:46.581Z,95850.19
2023-04-13T22:00:15.884Z,95851.53
2023-04-13T22:02:43.649Z,95861.25
2023-04-13T22:05:11.874Z,95868.19
2023-04-13T22:07:43.012Z,95870.97
2023-04-13T22:10:11.938Z,95870.50
2023-04-13T22:12:39.566Z,95869.69
2023-04-13T22:15:09.437Z,95876.66
2023-04-13T22:17:37.241Z,95869.19
2023-04-13T22:20:05.429Z,95865.81
2023-04-13T22:22:32.941Z,95869.19
2023-04-13T22:25:00.473Z,95867.06
2023-04-13T22:27:28.245Z,95870.72
2023-04-13T22:29:55.907Z,95868.78
2023-04-13T22:32:24.788Z,95868.50
2023-04-13T22:34:52.292Z,95858.66
2023-04-13T22:37:19.782Z,95860.13
2023-04-13T22:39:47.399Z,95854.66
2023-04-13T22:42:14.918Z,95847.56
2023-04-13T22:44:42.596Z,95850.66
2023-04-13T22:47:10.117Z,95846.97
2023-04-13T22:49:38.980Z,95850.19
2023-04-13T22:52:06.468Z,95842.72
2023-04-13T22:54:33.962Z,95837.19
2023-04-13T22:57:04.048Z,95838.75
2023-04-13T22:59:32.812Z,95830.34
2023-04-13T23:02:01.724Z,95839.44
2023-04-13T23:04:29.532Z,95841.72
2023-04-13T23:06:58.479Z,95853.69
2023-04-13T23:09:26.000Z,95862.31
2023-04-13T23:11:53.581Z,95860.56
2023-04-13T23:14:22.344Z,95864.81
2023-04-13T23:16:50.039Z,95864.53
2023-04-13T23:19:17.871Z,95865.03
2023-04-13T23:21:45.462Z,95863.75
2023-04-13T23:24:14.372Z,95862.31
2023-04-13T23:26:41.898Z,95857.78
2023-04-13T23:29:09.468Z,95859.38
2023-04-13T23:31:37.114Z,95858.75
2023-04-13T23:34:04.678Z,95858.91
2023-04-13T23:36:33.695Z,95865.84
2023-04-13T23:39:01.485Z,95859.09
2023-04-13T23:41:30.731Z,95866.03
2023-04-13T23:43:58.631Z,95852.63
2023-04-13T23:46:26.488Z,95859.75
2023-04-13T23:48:54.004Z,95863.28
2023-04-13T23:51:22.599Z,95854.09
2023-04-13T23:53:50.113Z,95854.91
2023-04-13T23:56:17.664Z,95856.53
2023-04-13T23:58:46.549Z,95855.88
